createdAt,value
2022-08-07T00:00:27.143Z,1015.08
2022-08-07T00:05:29.397Z,1015.08
2022-08-07T00:10:33.577Z,1015.09
2022-08-07T00:15:46.814Z,1015.09
2022-08-07T00:20:41.895Z,1015.00
2022-08-07T00:26:00.294Z,1015.03
2022-08-07T00:30:50.251Z,1014.99
2022-08-07T00:35:54.358Z,1014.97
2022-08-07T00:40:58.540Z,1014.88
2022-08-07T00:46:02.700Z,1014.90
2022-08-07T00:51:06.862Z,1014.86
2022-08-07T00:56:14.106Z,1014.83
2022-08-07T01:01:15.282Z,1014.81
2022-08-07T01:06:19.321Z,1014.80
2022-08-07T01:12:04.652Z,1014.78
2022-08-07T01:16:30.573Z,1014.74
2022-08-07T01:21:29.925Z,1014.71
2022-08-07T01:26:34.074Z,1014.73
2022-08-07T01:31:42.414Z,1014.72
2022-08-07T01:36:40.820Z,1014.69
2022-08-07T01:42:06.139Z,1014.64
2022-08-07T01:46:48.861Z,1014.63
2022-08-07T01:52:04.143Z,1014.60
2022-08-07T01:56:57.144Z,1014.57
2022-08-07T02:02:04.233Z,1014.61
2022-08-07T02:07:05.489Z,1014.63
2022-08-07T02:12:09.631Z,1014.61
2022-08-07T02:17:16.656Z,1014.58
2022-08-07T02:22:18.517Z,1014.57
2022-08-07T02:32:29.864Z,1014.51
2022-08-07T02:37:33.969Z,1014.52
2022-08-07T02:42:34.613Z,1014.56
2022-08-07T02:47:45.462Z,1014.48
2022-08-07T02:52:44.234Z,1014.54
2022-08-07T02:57:47.139Z,1014.47
2022-08-07T03:02:54.333Z,1014.52
2022-08-07T03:08:07.502Z,1014.41
2022-08-07T03:12:59.576Z,1014.46
2022-08-07T03:18:03.742Z,1014.51
2022-08-07T03:23:06.014Z,1014.50
2022-08-07T03:28:37.342Z,1014.50
2022-08-07T03:33:14.345Z,1014.50
2022-08-07T03:38:21.064Z,1014.46
2022-08-07T03:43:22.659Z,1014.40
2022-08-07T03:54:05.566Z,1014.42
2022-08-07T03:59:09.417Z,1014.37
2022-08-07T04:03:53.117Z,1014.38
2022-08-07T04:08:43.487Z,1014.38
2022-08-07T04:14:10.858Z,1014.36
2022-08-07T04:18:59.393Z,1014.39
2022-08-07T04:24:05.779Z,1014.34
2022-08-07T04:29:00.117Z,1014.48
2022-08-07T04:34:04.572Z,1014.50
2022-08-07T04:39:08.434Z,1014.45
2022-08-07T04:44:18.178Z,1014.50
2022-08-07T04:49:24.253Z,1014.53
2022-08-07T04:54:22.913Z,1014.58
2022-08-07T05:00:12.632Z,1014.61
2022-08-07T05:04:29.266Z,1014.60
2022-08-07T05:09:46.369Z,1014.58
2022-08-07T05:14:55.283Z,1014.54
2022-08-07T05:19:45.242Z,1014.54
2022-08-07T05:24:42.111Z,1014.58
2022-08-07T05:29:51.292Z,1014.69
2022-08-07T05:34:48.530Z,1014.64
2022-08-07T05:40:12.763Z,1014.66
2022-08-07T05:45:14.870Z,1014.68
2022-08-07T05:50:01.026Z,1014.65
2022-08-07T05:55:10.690Z,1014.72
2022-08-07T06:00:09.362Z,1014.65
2022-08-07T06:05:15.593Z,1014.64
2022-08-07T06:10:17.676Z,1014.67
2022-08-07T06:15:21.843Z,1014.65
2022-08-07T06:20:49.314Z,1014.69
2022-08-07T06:25:34.884Z,1014.66
2022-08-07T06:30:37.157Z,1014.69
2022-08-07T06:35:45.308Z,1014.72
2022-08-07T06:40:45.790Z,1014.84
2022-08-07T06:50:50.971Z,1014.92
2022-08-07T06:56:01.080Z,1014.98
2022-08-07T07:00:59.295Z,1015.02
2022-08-07T07:06:06.241Z,1015.15
2022-08-07T07:11:13.571Z,1015.14
2022-08-07T07:16:11.769Z,1015.14
2022-08-07T07:21:19.433Z,1015.06
2022-08-07T07:26:34.132Z,1015.08
2022-08-07T07:31:22.358Z,1015.21
2022-08-07T07:36:32.458Z,1015.19
2022-08-07T07:41:50.361Z,1015.14
2022-08-07T07:46:40.465Z,1015.10
2022-08-07T07:51:57.411Z,1015.08
2022-08-07T07:56:41.268Z,1015.08
2022-08-07T08:02:02.576Z,1014.98
2022-08-07T08:06:52.087Z,1014.86
2022-08-07T08:12:02.907Z,1015.03
2022-08-07T08:16:57.915Z,1014.99
2022-08-07T08:22:03.571Z,1014.98
2022-08-07T08:27:09.374Z,1014.94
2022-08-07T08:32:18.431Z,1015.23
2022-08-07T08:37:59.662Z,1015.31
2022-08-07T08:42:18.717Z,1015.25
2022-08-07T08:47:25.038Z,1015.35
2022-08-07T08:52:30.358Z,1015.36
2022-08-07T08:57:34.192Z,1015.31
2022-08-07T09:02:37.332Z,1015.21
2022-08-07T09:07:46.599Z,1015.19
2022-08-07T09:12:53.069Z,1015.25
2022-08-07T09:17:59.451Z,1015.16
2022-08-07T09:24:35.077Z,1015.14
2022-08-07T09:28:00.757Z,1015.15
2022-08-07T09:32:58.447Z,1015.10
2022-08-07T09:38:00.664Z,1015.12
2022-08-07T09:43:04.840Z,1015.08
2022-08-07T09:48:11.612Z,1015.04
2022-08-07T09:53:13.145Z,1014.94
2022-08-07T09:58:17.345Z,1015.01
2022-08-07T10:04:05.922Z,1014.90
2022-08-07T10:08:25.636Z,1014.91
2022-08-07T10:13:55.571Z,1014.77
2022-08-07T10:18:35.411Z,1014.81
2022-08-07T10:24:04.907Z,1014.73
2022-08-07T10:28:49.658Z,1014.72
2022-08-07T10:34:06.199Z,1014.69
2022-08-07T10:38:51.225Z,1014.59
2022-08-07T10:43:54.744Z,1014.58
2022-08-07T10:48:58.892Z,1014.54
2022-08-07T10:54:05.078Z,1014.58
2022-08-07T10:59:07.244Z,1014.45
2022-08-07T11:10:09.891Z,1014.25
2022-08-07T11:14:43.410Z,1014.14
2022-08-07T11:19:27.265Z,1014.12
2022-08-07T11:24:26.137Z,1014.14
2022-08-07T11:29:42.613Z,1014.09
2022-08-07T11:34:32.558Z,1014.01
2022-08-07T11:39:59.109Z,1014.06
2022-08-07T11:44:52.633Z,1013.94
2022-08-07T11:50:25.577Z,1013.97
2022-08-07T11:54:54.741Z,1013.86
2022-08-07T12:00:10.445Z,1013.87
2022-08-07T12:04:57.528Z,1013.84
2022-08-07T12:10:02.146Z,1013.75
2022-08-07T12:15:08.236Z,1013.72
2022-08-07T12:20:18.577Z,1013.73
2022-08-07T12:25:17.837Z,1013.76
2022-08-07T12:30:18.283Z,1013.67
2022-08-07T12:35:24.067Z,1013.73
2022-08-07T12:40:46.388Z,1013.59
2022-08-07T12:45:30.755Z,1013.60
2022-08-07T12:50:39.986Z,1013.57
2022-08-07T12:56:02.428Z,1013.42
2022-08-07T13:00:50.471Z,1013.46
2022-08-07T13:06:02.653Z,1013.43
2022-08-07T13:10:52.548Z,1013.43
2022-08-07T13:15:58.939Z,1013.36
2022-08-07T13:20:58.014Z,1013.32
2022-08-07T13:26:02.140Z,1013.28
2022-08-07T13:31:06.352Z,1013.20
2022-08-07T13:36:08.594Z,1013.15
2022-08-07T13:41:12.871Z,1013.14
2022-08-07T13:46:22.241Z,1013.13
2022-08-07T13:56:36.135Z,1012.92
2022-08-07T14:01:29.397Z,1013.02
2022-08-07T14:06:33.538Z,1012.90
2022-08-07T14:12:00.357Z,1012.86
2022-08-07T14:16:41.835Z,1012.82
2022-08-07T14:22:02.168Z,1012.80
2022-08-07T14:26:50.998Z,1012.81
2022-08-07T14:31:57.833Z,1012.78
2022-08-07T14:36:58.466Z,1012.71
2022-08-07T14:42:20.048Z,1012.70
2022-08-07T14:47:14.565Z,1012.56
2022-08-07T14:52:10.957Z,1012.58
2022-08-07T14:57:19.126Z,1012.53
2022-08-07T15:07:23.459Z,1012.57
2022-08-07T15:12:30.438Z,1012.50
2022-08-07T15:17:31.992Z,1012.40
2022-08-07T15:22:37.940Z,1012.42
2022-08-07T15:27:38.200Z,1012.50
2022-08-07T15:33:01.453Z,1012.43
2022-08-07T15:38:17.829Z,1012.28
2022-08-07T15:48:00.862Z,1012.20
2022-08-07T15:52:57.130Z,1012.21
2022-08-07T15:58:01.248Z,1012.11
2022-08-07T16:03:05.419Z,1012.03
2022-08-07T16:08:31.519Z,1012.08
2022-08-07T16:13:18.023Z,1012.05
2022-08-07T16:18:50.361Z,1011.94
2022-08-07T16:23:53.053Z,1011.97
2022-08-07T16:30:08.294Z,1011.99
2022-08-07T16:34:02.960Z,1011.85
2022-08-07T16:38:58.589Z,1011.96
2022-08-07T16:44:03.881Z,1011.88
2022-08-07T16:49:10.529Z,1011.86
2022-08-07T16:54:02.907Z,1011.82
2022-08-07T16:59:10.650Z,1011.82
2022-08-07T17:03:58.106Z,1011.85
2022-08-07T17:09:09.462Z,1011.83
2022-08-07T17:14:19.418Z,1011.91
2022-08-07T17:19:04.030Z,1011.90
2022-08-07T17:24:12.540Z,1011.85
2022-08-07T17:30:16.238Z,1011.96
2022-08-07T17:34:33.323Z,1011.90
2022-08-07T17:39:18.836Z,1011.94
2022-08-07T17:44:33.769Z,1011.87
2022-08-07T17:49:30.082Z,1011.96
2022-08-07T17:54:53.218Z,1011.79
2022-08-07T17:59:36.170Z,1011.89
2022-08-07T18:04:39.533Z,1011.94
2022-08-07T18:10:04.379Z,1011.95
2022-08-07T18:14:47.868Z,1012.11
2022-08-07T18:21:07.325Z,1012.15
2022-08-07T18:24:56.162Z,1012.12
2022-08-07T18:30:06.128Z,1012.26
2022-08-07T18:35:04.474Z,1012.27
2022-08-07T18:40:17.986Z,1012.26
2022-08-07T18:45:44.364Z,1012.36
2022-08-07T18:50:39.296Z,1012.40
2022-08-07T18:55:43.118Z,1012.38
2022-08-07T19:00:34.331Z,1012.50
2022-08-07T19:06:03.974Z,1012.57
2022-08-07T19:10:49.777Z,1012.60
2022-08-07T19:16:05.234Z,1012.67
2022-08-07T19:20:40.040Z,1012.74
2022-08-07T19:26:23.777Z,1012.71
2022-08-07T19:31:02.236Z,1012.80
2022-08-07T19:35:50.621Z,1012.97
2022-08-07T19:40:54.885Z,1012.97
2022-08-07T19:46:08.256Z,1013.02
2022-08-07T19:51:03.095Z,1013.03
2022-08-07T19:56:13.564Z,1013.07
2022-08-07T20:01:11.463Z,1013.11
2022-08-07T20:06:28.601Z,1013.15
2022-08-07T20:11:34.351Z,1013.11
2022-08-07T20:16:34.896Z,1013.09
2022-08-07T20:21:29.175Z,1013.18
2022-08-07T20:31:36.356Z,1013.20
2022-08-07T20:36:40.579Z,1013.23
2022-08-07T20:41:44.717Z,1013.20
2022-08-07T20:46:48.891Z,1013.26
2022-08-07T20:51:53.046Z,1013.18
2022-08-07T20:56:57.188Z,1013.26
2022-08-07T21:02:01.405Z,1013.29
2022-08-07T21:07:14.706Z,1013.33
2022-08-07T21:12:15.174Z,1013.34
2022-08-07T21:18:01.928Z,1013.35
2022-08-07T21:22:16.091Z,1013.37
2022-08-07T21:27:18.438Z,1013.34
2022-08-07T21:32:48.046Z,1013.35
2022-08-07T21:37:31.331Z,1013.33
2022-08-07T21:42:42.707Z,1013.37
2022-08-07T21:47:35.029Z,1013.35
2022-08-07T21:52:39.168Z,1013.33
2022-08-07T21:57:51.702Z,1013.31
2022-08-07T22:02:47.630Z,1013.33
2022-08-07T22:07:59.356Z,1013.33
2022-08-07T22:12:55.806Z,1013.29
2022-08-07T22:18:00.024Z,1013.42
2022-08-07T22:23:04.148Z,1013.31
2022-08-07T22:28:31.291Z,1013.36
2022-08-07T22:33:12.451Z,1013.44
2022-08-07T22:38:20.350Z,1013.36
2022-08-07T22:43:20.802Z,1013.26
2022-08-07T22:48:54.694Z,1013.27
2022-08-07T22:54:07.501Z,1013.26
2022-08-07T22:58:33.200Z,1013.25
2022-08-07T23:03:58.898Z,1013.21
2022-08-07T23:08:46.818Z,1013.27
2022-08-07T23:13:49.105Z,1013.28
2022-08-07T23:18:48.007Z,1013.28
2022-08-07T23:24:05.637Z,1013.28
2022-08-07T23:28:56.500Z,1013.19
2022-08-07T23:34:36.420Z,1013.20
2022-08-07T23:39:04.830Z,1013.33
2022-08-07T23:44:09.446Z,1013.23
2022-08-07T23:49:15.515Z,1013.36
2022-08-07T23:54:28.498Z,1013.25
